sensor_id;sensor_type;location;lat;lon;timestamp;P1;durP1;ratioP1;P2;durP2;ratioP2
54125;SDS011;40360;52.992;6.796;2023-10-19T00:00:13;20.08;;;15.85;;
54125;SDS011;40360;52.992;6.796;2023-10-19T00:02:48;22.52;;;17.10;;
54125;SDS011;40360;52.992;6.796;2023-10-19T00:05:17;21.35;;;16.65;;
54125;SDS011;40360;52.992;6.796;2023-10-19T00:07:43;23.23;;;17.02;;
54125;SDS011;40360;52.992;6.796;2023-10-19T00:10:09;22.95;;;18.10;;
54125;SDS011;40360;52.992;6.796;2023-10-19T00:12:40;25.20;;;17.75;;
54125;SDS011;40360;52.992;6.796;2023-10-19T00:15:05;22.98;;;17.88;;
54125;SDS011;40360;52.992;6.796;2023-10-19T00:17:31;24.83;;;17.20;;
54125;SDS011;40360;52.992;6.796;2023-10-19T00:19:58;23.38;;;17.88;;
54125;SDS011;40360;52.992;6.796;2023-10-19T00:22:52;22.75;;;17.13;;
54125;SDS011;40360;52.992;6.796;2023-10-19T00:25:18;22.77;;;17.58;;
54125;SDS011;40360;52.992;6.796;2023-10-19T00:27:48;24.95;;;18.33;;
54125;SDS011;40360;52.992;6.796;2023-10-19T00:30:14;26.67;;;19.60;;
54125;SDS011;40360;52.992;6.796;2023-10-19T00:32:43;25.63;;;20.00;;
54125;SDS011;40360;52.992;6.796;2023-10-19T00:35:11;25.73;;;19.27;;
54125;SDS011;40360;52.992;6.796;2023-10-19T00:37:53;26.48;;;19.55;;
54125;SDS011;40360;52.992;6.796;2023-10-19T00:40:22;26.58;;;19.52;;
54125;SDS011;40360;52.992;6.796;2023-10-19T00:43:03;26.00;;;18.52;;
54125;SDS011;40360;52.992;6.796;2023-10-19T00:45:35;28.92;;;20.65;;
54125;SDS011;40360;52.992;6.796;2023-10-19T00:48:06;29.23;;;20.80;;
54125;SDS011;40360;52.992;6.796;2023-10-19T00:50:33;28.65;;;20.23;;
54125;SDS011;40360;52.992;6.796;2023-10-19T00:53:01;28.67;;;20.98;;
54125;SDS011;40360;52.992;6.796;2023-10-19T00:55:32;25.23;;;19.50;;
54125;SDS011;40360;52.992;6.796;2023-10-19T00:57:58;26.15;;;20.25;;
54125;SDS011;40360;52.992;6.796;2023-10-19T01:00:31;28.95;;;20.92;;
54125;SDS011;40360;52.992;6.796;2023-10-19T01:03:00;29.80;;;21.05;;
54125;SDS011;40360;52.992;6.796;2023-10-19T01:05:29;25.23;;;21.25;;
54125;SDS011;40360;52.992;6.796;2023-10-19T01:08:01;29.58;;;22.85;;
54125;SDS011;40360;52.992;6.796;2023-10-19T01:10:30;30.23;;;20.83;;
54125;SDS011;40360;52.992;6.796;2023-10-19T01:12:57;25.33;;;20.88;;
54125;SDS011;40360;52.992;6.796;2023-10-19T01:15:24;24.05;;;19.95;;
54125;SDS011;40360;52.992;6.796;2023-10-19T01:17:53;29.27;;;21.02;;
54125;SDS011;40360;52.992;6.796;2023-10-19T01:20:27;28.77;;;22.20;;
54125;SDS011;40360;52.992;6.796;2023-10-19T01:23:02;28.33;;;22.35;;
54125;SDS011;40360;52.992;6.796;2023-10-19T01:25:44;26.60;;;20.52;;
54125;SDS011;40360;52.992;6.796;2023-10-19T01:28:23;28.08;;;21.17;;
54125;SDS011;40360;52.992;6.796;2023-10-19T01:31:19;32.07;;;22.23;;
54125;SDS011;40360;52.992;6.796;2023-10-19T01:33:52;28.08;;;20.95;;
54125;SDS011;40360;52.992;6.796;2023-10-19T01:36:20;33.42;;;23.33;;
54125;SDS011;40360;52.992;6.796;2023-10-19T01:38:56;30.52;;;22.17;;
54125;SDS011;40360;52.992;6.796;2023-10-19T01:41:35;27.48;;;21.25;;
54125;SDS011;40360;52.992;6.796;2023-10-19T01:44:01;26.35;;;21.33;;
54125;SDS011;40360;52.992;6.796;2023-10-19T01:46:30;28.48;;;22.35;;
54125;SDS011;40360;52.992;6.796;2023-10-19T01:48:59;27.25;;;21.23;;
54125;SDS011;40360;52.992;6.796;2023-10-19T01:51:27;28.88;;;21.98;;
54125;SDS011;40360;52.992;6.796;2023-10-19T01:53:58;27.35;;;21.10;;
54125;SDS011;40360;52.992;6.796;2023-10-19T01:56:25;29.42;;;21.63;;
54125;SDS011;40360;52.992;6.796;2023-10-19T01:58:52;31.02;;;21.20;;
54125;SDS011;40360;52.992;6.796;2023-10-19T02:01:19;27.88;;;21.40;;
54125;SDS011;40360;52.992;6.796;2023-10-19T02:03:45;28.58;;;21.75;;
54125;SDS011;40360;52.992;6.796;2023-10-19T02:06:13;28.20;;;22.13;;
54125;SDS011;40360;52.992;6.796;2023-10-19T02:08:59;27.02;;;20.95;;
54125;SDS011;40360;52.992;6.796;2023-10-19T02:11:41;29.98;;;21.83;;
54125;SDS011;40360;52.992;6.796;2023-10-19T02:14:07;29.52;;;21.77;;
54125;SDS011;40360;52.992;6.796;2023-10-19T02:16:46;26.55;;;21.08;;
54125;SDS011;40360;52.992;6.796;2023-10-19T02:19:17;27.08;;;20.52;;
54125;SDS011;40360;52.992;6.796;2023-10-19T02:21:43;26.27;;;20.25;;
54125;SDS011;40360;52.992;6.796;2023-10-19T02:24:12;27.23;;;20.90;;
54125;SDS011;40360;52.992;6.796;2023-10-19T02:26:42;27.40;;;21.45;;
54125;SDS011;40360;52.992;6.796;2023-10-19T02:29:08;27.67;;;21.80;;
54125;SDS011;40360;52.992;6.796;2023-10-19T02:31:38;26.65;;;21.23;;
54125;SDS011;40360;52.992;6.796;2023-10-19T02:34:05;26.33;;;20.00;;
54125;SDS011;40360;52.992;6.796;2023-10-19T02:36:32;23.25;;;19.30;;
54125;SDS011;40360;52.992;6.796;2023-10-19T02:39:02;25.88;;;20.35;;
54125;SDS011;40360;52.992;6.796;2023-10-19T02:41:33;28.70;;;21.05;;
54125;SDS011;40360;52.992;6.796;2023-10-19T02:44:09;25.13;;;19.95;;
54125;SDS011;40360;52.992;6.796;2023-10-19T02:46:41;27.58;;;20.42;;
54125;SDS011;40360;52.992;6.796;2023-10-19T02:49:08;22.27;;;19.02;;
54125;SDS011;40360;52.992;6.796;2023-10-19T02:51:42;24.02;;;19.63;;
54125;SDS011;40360;52.992;6.796;2023-10-19T02:54:14;27.40;;;20.73;;
54125;SDS011;40360;52.992;6.796;2023-10-19T02:56:55;24.92;;;19.27;;
54125;SDS011;40360;52.992;6.796;2023-10-19T02:59:26;22.13;;;18.70;;
54125;SDS011;40360;52.992;6.796;2023-10-19T03:01:55;25.73;;;20.40;;
54125;SDS011;40360;52.992;6.796;2023-10-19T03:04:37;25.95;;;19.60;;
54125;SDS011;40360;52.992;6.796;2023-10-19T03:07:04;26.45;;;19.17;;
54125;SDS011;40360;52.992;6.796;2023-10-19T03:09:30;25.27;;;18.63;;
54125;SDS011;40360;52.992;6.796;2023-10-19T03:12:01;23.15;;;17.83;;
54125;SDS011;40360;52.992;6.796;2023-10-19T03:14:34;23.42;;;18.27;;
54125;SDS011;40360;52.992;6.796;2023-10-19T03:17:02;23.60;;;18.38;;
54125;SDS011;40360;52.992;6.796;2023-10-19T03:19:29;22.75;;;18.10;;
54125;SDS011;40360;52.992;6.796;2023-10-19T03:21:54;21.23;;;17.20;;
54125;SDS011;40360;52.992;6.796;2023-10-19T03:24:20;20.63;;;15.25;;
54125;SDS011;40360;52.992;6.796;2023-10-19T03:27:02;20.92;;;15.93;;
54125;SDS011;40360;52.992;6.796;2023-10-19T03:29:37;21.77;;;17.00;;
54125;SDS011;40360;52.992;6.796;2023-10-19T03:32:04;21.50;;;17.20;;
54125;SDS011;40360;52.992;6.796;2023-10-19T03:34:34;21.08;;;16.65;;
54125;SDS011;40360;52.992;6.796;2023-10-19T03:37:00;21.27;;;16.88;;
54125;SDS011;40360;52.992;6.796;2023-10-19T03:39:31;19.45;;;15.82;;
54125;SDS011;40360;52.992;6.796;2023-10-19T03:42:03;17.45;;;14.98;;
54125;SDS011;40360;52.992;6.796;2023-10-19T03:44:31;19.40;;;15.27;;
54125;SDS011;40360;52.992;6.796;2023-10-19T03:47:18;20.30;;;15.90;;
54125;SDS011;40360;52.992;6.796;2023-10-19T03:49:45;19.48;;;15.50;;
54125;SDS011;40360;52.992;6.796;2023-10-19T03:52:14;19.42;;;15.25;;
54125;SDS011;40360;52.992;6.796;2023-10-19T03:54:39;18.35;;;14.45;;
54125;SDS011;40360;52.992;6.796;2023-10-19T03:57:06;16.83;;;13.85;;
54125;SDS011;40360;52.992;6.796;2023-10-19T03:59:40;17.88;;;14.50;;
54125;SDS011;40360;52.992;6.796;2023-10-19T04:02:09;18.67;;;14.82;;
54125;SDS011;40360;52.992;6.796;2023-10-19T04:04:39;16.38;;;13.15;;
54125;SDS011;40360;52.992;6.796;2023-10-19T04:07:09;16.67;;;13.52;;
54125;SDS011;40360;52.992;6.796;2023-10-19T04:09:55;16.45;;;13.05;;
54125;SDS011;40360;52.992;6.796;2023-10-19T04:12:39;16.67;;;13.75;;
54125;SDS011;40360;52.992;6.796;2023-10-19T04:15:09;15.70;;;13.18;;
54125;SDS011;40360;52.992;6.796;2023-10-19T04:17:35;15.18;;;13.25;;
54125;SDS011;40360;52.992;6.796;2023-10-19T04:20:04;14.68;;;12.38;;
54125;SDS011;40360;52.992;6.796;2023-10-19T04:22:43;17.13;;;13.10;;
54125;SDS011;40360;52.992;6.796;2023-10-19T04:25:10;17.85;;;13.88;;
54125;SDS011;40360;52.992;6.796;2023-10-19T04:27:41;16.02;;;13.07;;
54125;SDS011;40360;52.992;6.796;2023-10-19T04:30:08;14.82;;;12.75;;
54125;SDS011;40360;52.992;6.796;2023-10-19T04:32:41;15.05;;;12.10;;
54125;SDS011;40360;52.992;6.796;2023-10-19T04:35:11;14.85;;;12.23;;
54125;SDS011;40360;52.992;6.796;2023-10-19T04:37:39;15.50;;;12.65;;
54125;SDS011;40360;52.992;6.796;2023-10-19T04:40:10;15.45;;;12.68;;
54125;SDS011;40360;52.992;6.796;2023-10-19T04:42:37;15.65;;;11.88;;
54125;SDS011;40360;52.992;6.796;2023-10-19T04:45:03;16.92;;;12.35;;
54125;SDS011;40360;52.992;6.796;2023-10-19T04:47:30;14.82;;;10.55;;
54125;SDS011;40360;52.992;6.796;2023-10-19T04:50:02;14.30;;;11.10;;
54125;SDS011;40360;52.992;6.796;2023-10-19T04:52:28;13.40;;;11.27;;
54125;SDS011;40360;52.992;6.796;2023-10-19T04:54:54;14.82;;;11.15;;
54125;SDS011;40360;52.992;6.796;2023-10-19T04:57:19;14.45;;;11.13;;
54125;SDS011;40360;52.992;6.796;2023-10-19T04:59:48;14.43;;;11.32;;
54125;SDS011;40360;52.992;6.796;2023-10-19T05:02:13;14.48;;;11.77;;
54125;SDS011;40360;52.992;6.796;2023-10-19T05:04:42;13.15;;;10.63;;
54125;SDS011;40360;52.992;6.796;2023-10-19T05:07:09;12.18;;;10.57;;
54125;SDS011;40360;52.992;6.796;2023-10-19T05:09:37;13.45;;;10.10;;
54125;SDS011;40360;52.992;6.796;2023-10-19T05:12:06;13.88;;;11.25;;
54125;SDS011;40360;52.992;6.796;2023-10-19T05:14:35;14.98;;;10.57;;
54125;SDS011;40360;52.992;6.796;2023-10-19T05:17:01;13.77;;;11.07;;
54125;SDS011;40360;52.992;6.796;2023-10-19T05:19:31;12.18;;;10.13;;
54125;SDS011;40360;52.992;6.796;2023-10-19T05:22:00;12.88;;;9.68;;
54125;SDS011;40360;52.992;6.796;2023-10-19T05:24:29;13.45;;;11.35;;
54125;SDS011;40360;52.992;6.796;2023-10-19T05:26:55;12.25;;;10.10;;
54125;SDS011;40360;52.992;6.796;2023-10-19T05:29:21;11.45;;;9.50;;
54125;SDS011;40360;52.992;6.796;2023-10-19T05:31:49;10.68;;;9.25;;
54125;SDS011;40360;52.992;6.796;2023-10-19T05:34:19;12.77;;;9.88;;
54125;SDS011;40360;52.992;6.796;2023-10-19T05:36:45;12.32;;;10.68;;
54125;SDS011;40360;52.992;6.796;2023-10-19T05:39:14;11.02;;;9.30;;
54125;SDS011;40360;52.992;6.796;2023-10-19T05:41:42;13.10;;;10.52;;
54125;SDS011;40360;52.992;6.796;2023-10-19T05:44:08;10.80;;;8.95;;
54125;SDS011;40360;52.992;6.796;2023-10-19T06:02:23;9.65;;;8.18;;
54125;SDS011;40360;52.992;6.796;2023-10-19T06:04:49;10.15;;;8.73;;
54125;SDS011;40360;52.992;6.796;2023-10-19T06:07:15;10.93;;;8.80;;
54125;SDS011;40360;52.992;6.796;2023-10-19T06:09:40;11.27;;;9.02;;
54125;SDS011;40360;52.992;6.796;2023-10-19T06:12:06;9.07;;;8.05;;
54125;SDS011;40360;52.992;6.796;2023-10-19T06:14:34;10.70;;;8.70;;
54125;SDS011;40360;52.992;6.796;2023-10-19T06:17:00;10.52;;;8.63;;
54125;SDS011;40360;52.992;6.796;2023-10-19T06:19:26;10.07;;;8.45;;
54125;SDS011;40360;52.992;6.796;2023-10-19T06:21:52;10.13;;;8.55;;
54125;SDS011;40360;52.992;6.796;2023-10-19T06:24:17;10.40;;;9.23;;
54125;SDS011;40360;52.992;6.796;2023-10-19T06:26:44;10.93;;;9.20;;
54125;SDS011;40360;52.992;6.796;2023-10-19T06:29:09;10.05;;;8.27;;
54125;SDS011;40360;52.992;6.796;2023-10-19T06:31:35;8.73;;;7.75;;
54125;SDS011;40360;52.992;6.796;2023-10-19T06:34:02;8.63;;;7.70;;
54125;SDS011;40360;52.992;6.796;2023-10-19T06:36:28;9.60;;;8.13;;
54125;SDS011;40360;52.992;6.796;2023-10-19T06:38:56;8.80;;;7.90;;
54125;SDS011;40360;52.992;6.796;2023-10-19T06:41:22;8.77;;;7.63;;
54125;SDS011;40360;52.992;6.796;2023-10-19T06:43:49;9.18;;;8.02;;
54125;SDS011;40360;52.992;6.796;2023-10-19T06:46:15;9.32;;;8.10;;
54125;SDS011;40360;52.992;6.796;2023-10-19T06:48:40;8.32;;;7.45;;
54125;SDS011;40360;52.992;6.796;2023-10-19T06:51:07;9.68;;;7.68;;
54125;SDS011;40360;52.992;6.796;2023-10-19T06:53:33;8.35;;;7.28;;
54125;SDS011;40360;52.992;6.796;2023-10-19T06:55:59;10.73;;;7.57;;
54125;SDS011;40360;52.992;6.796;2023-10-19T06:58:25;7.82;;;7.03;;
54125;SDS011;40360;52.992;6.796;2023-10-19T07:00:52;7.97;;;7.15;;
54125;SDS011;40360;52.992;6.796;2023-10-19T07:03:21;7.97;;;7.00;;
54125;SDS011;40360;52.992;6.796;2023-10-19T07:05:48;8.15;;;7.07;;
54125;SDS011;40360;52.992;6.796;2023-10-19T07:08:14;7.88;;;6.88;;
54125;SDS011;40360;52.992;6.796;2023-10-19T07:10:40;7.10;;;6.38;;
54125;SDS011;40360;52.992;6.796;2023-10-19T07:13:06;7.07;;;5.95;;
54125;SDS011;40360;52.992;6.796;2023-10-19T07:15:31;6.63;;;5.93;;
54125;SDS011;40360;52.992;6.796;2023-10-19T07:17:57;7.50;;;6.45;;
54125;SDS011;40360;52.992;6.796;2023-10-19T07:20:23;7.60;;;6.78;;
54125;SDS011;40360;52.992;6.796;2023-10-19T07:22:58;6.88;;;6.05;;
54125;SDS011;40360;52.992;6.796;2023-10-19T07:25:44;7.88;;;6.70;;
54125;SDS011;40360;52.992;6.796;2023-10-19T07:28:14;8.35;;;6.50;;
54125;SDS011;40360;52.992;6.796;2023-10-19T07:30:41;8.02;;;6.15;;
54125;SDS011;40360;52.992;6.796;2023-10-19T07:33:08;7.63;;;6.43;;
54125;SDS011;40360;52.992;6.796;2023-10-19T07:35:35;8.20;;;6.53;;
54125;SDS011;40360;52.992;6.796;2023-10-19T07:38:04;10.30;;;7.03;;
54125;SDS011;40360;52.992;6.796;2023-10-19T07:40:32;6.82;;;6.22;;
54125;SDS011;40360;52.992;6.796;2023-10-19T07:42:58;6.88;;;6.18;;
54125;SDS011;40360;52.992;6.796;2023-10-19T07:45:24;7.35;;;6.60;;
54125;SDS011;40360;52.992;6.796;2023-10-19T07:47:50;8.38;;;7.25;;
54125;SDS011;40360;52.992;6.796;2023-10-19T07:50:16;6.78;;;6.07;;
54125;SDS011;40360;52.992;6.796;2023-10-19T07:52:46;6.97;;;6.28;;
54125;SDS011;40360;52.992;6.796;2023-10-19T07:55:13;7.38;;;6.63;;
54125;SDS011;40360;52.992;6.796;2023-10-19T07:57:40;7.43;;;6.68;;
54125;SDS011;40360;52.992;6.796;2023-10-19T08:00:07;7.07;;;6.38;;
54125;SDS011;40360;52.992;6.796;2023-10-19T08:02:35;7.32;;;6.15;;
54125;SDS011;40360;52.992;6.796;2023-10-19T08:05:03;8.00;;;6.80;;
54125;SDS011;40360;52.992;6.796;2023-10-19T08:07:31;7.30;;;6.55;;
54125;SDS011;40360;52.992;6.796;2023-10-19T08:09:59;7.85;;;6.90;;
54125;SDS011;40360;52.992;6.796;2023-10-19T08:12:25;8.82;;;6.80;;
54125;SDS011;40360;52.992;6.796;2023-10-19T08:14:54;8.00;;;7.20;;
54125;SDS011;40360;52.992;6.796;2023-10-19T08:17:21;7.93;;;6.93;;
54125;SDS011;40360;52.992;6.796;2023-10-19T08:19:47;8.48;;;7.30;;
54125;SDS011;40360;52.992;6.796;2023-10-19T08:22:12;8.73;;;7.82;;
54125;SDS011;40360;52.992;6.796;2023-10-19T08:24:40;8.45;;;7.55;;
54125;SDS011;40360;52.992;6.796;2023-10-19T08:27:08;9.00;;;7.75;;
54125;SDS011;40360;52.992;6.796;2023-10-19T08:29:39;7.80;;;7.03;;
54125;SDS011;40360;52.992;6.796;2023-10-19T08:32:04;9.48;;;6.90;;
54125;SDS011;40360;52.992;6.796;2023-10-19T08:34:34;8.15;;;7.15;;
54125;SDS011;40360;52.992;6.796;2023-10-19T08:37:01;7.88;;;7.05;;
54125;SDS011;40360;52.992;6.796;2023-10-19T08:39:27;8.63;;;7.55;;
54125;SDS011;40360;52.992;6.796;2023-10-19T08:42:00;8.80;;;7.82;;
54125;SDS011;40360;52.992;6.796;2023-10-19T08:44:30;8.95;;;7.88;;
54125;SDS011;40360;52.992;6.796;2023-10-19T08:46:56;8.82;;;7.88;;
54125;SDS011;40360;52.992;6.796;2023-10-19T08:49:24;11.65;;;8.50;;
54125;SDS011;40360;52.992;6.796;2023-10-19T08:51:51;8.02;;;7.10;;
54125;SDS011;40360;52.992;6.796;2023-10-19T08:54:19;11.95;;;9.10;;
54125;SDS011;40360;52.992;6.796;2023-10-19T08:56:45;10.88;;;7.63;;
54125;SDS011;40360;52.992;6.796;2023-10-19T08:59:12;8.77;;;7.75;;
54125;SDS011;40360;52.992;6.796;2023-10-19T09:01:40;10.23;;;8.43;;
54125;SDS011;40360;52.992;6.796;2023-10-19T09:04:12;8.70;;;7.82;;
54125;SDS011;40360;52.992;6.796;2023-10-19T09:06:39;10.75;;;8.15;;
54125;SDS011;40360;52.992;6.796;2023-10-19T09:11:35;10.43;;;8.40;;
54125;SDS011;40360;52.992;6.796;2023-10-19T09:14:00;10.75;;;8.27;;
54125;SDS011;40360;52.992;6.796;2023-10-19T09:16:29;11.13;;;8.57;;
54125;SDS011;40360;52.992;6.796;2023-10-19T09:18:56;12.13;;;8.98;;
54125;SDS011;40360;52.992;6.796;2023-10-19T09:21:22;10.10;;;9.02;;
54125;SDS011;40360;52.992;6.796;2023-10-19T09:23:57;10.25;;;8.52;;
54125;SDS011;40360;52.992;6.796;2023-10-19T09:26:24;9.50;;;8.15;;
54125;SDS011;40360;52.992;6.796;2023-10-19T09:28:50;10.02;;;9.02;;
54125;SDS011;40360;52.992;6.796;2023-10-19T09:31:17;10.18;;;8.60;;
54125;SDS011;40360;52.992;6.796;2023-10-19T09:33:44;11.43;;;9.13;;
54125;SDS011;40360;52.992;6.796;2023-10-19T09:36:11;10.48;;;8.68;;
54125;SDS011;40360;52.992;6.796;2023-10-19T09:41:09;9.32;;;8.32;;
54125;SDS011;40360;52.992;6.796;2023-10-19T09:43:39;11.45;;;9.23;;
54125;SDS011;40360;52.992;6.796;2023-10-19T09:46:07;10.88;;;9.02;;
54125;SDS011;40360;52.992;6.796;2023-10-19T09:48:41;11.57;;;10.10;;
54125;SDS011;40360;52.992;6.796;2023-10-19T09:51:08;11.13;;;9.88;;
54125;SDS011;40360;52.992;6.796;2023-10-19T09:53:35;12.32;;;9.48;;
54125;SDS011;40360;52.992;6.796;2023-10-19T09:56:03;14.43;;;10.38;;
54125;SDS011;40360;52.992;6.796;2023-10-19T09:58:33;14.85;;;10.52;;
54125;SDS011;40360;52.992;6.796;2023-10-19T10:01:11;9.82;;;8.65;;
54125;SDS011;40360;52.992;6.796;2023-10-19T10:06:28;11.07;;;9.68;;
54125;SDS011;40360;52.992;6.796;2023-10-19T10:08:55;10.13;;;9.13;;
54125;SDS011;40360;52.992;6.796;2023-10-19T10:11:27;12.48;;;10.05;;
54125;SDS011;40360;52.992;6.796;2023-10-19T10:13:53;11.30;;;9.95;;
54125;SDS011;40360;52.992;6.796;2023-10-19T10:16:22;12.43;;;10.73;;
54125;SDS011;40360;52.992;6.796;2023-10-19T10:18:50;12.18;;;10.32;;
54125;SDS011;40360;52.992;6.796;2023-10-19T10:23:52;16.92;;;11.10;;
54125;SDS011;40360;52.992;6.796;2023-10-19T10:26:19;12.23;;;10.82;;
54125;SDS011;40360;52.992;6.796;2023-10-19T10:31:46;13.27;;;11.18;;
54125;SDS011;40360;52.992;6.796;2023-10-19T10:37:06;14.80;;;11.60;;
54125;SDS011;40360;52.992;6.796;2023-10-19T10:39:33;12.85;;;10.70;;
54125;SDS011;40360;52.992;6.796;2023-10-19T10:42:02;13.88;;;11.52;;
54125;SDS011;40360;52.992;6.796;2023-10-19T10:47:04;14.07;;;12.20;;
54125;SDS011;40360;52.992;6.796;2023-10-19T10:49:33;13.90;;;11.55;;
54125;SDS011;40360;52.992;6.796;2023-10-19T10:52:00;12.63;;;11.10;;
54125;SDS011;40360;52.992;6.796;2023-10-19T10:54:26;15.60;;;11.82;;
54125;SDS011;40360;52.992;6.796;2023-10-19T10:56:51;14.50;;;12.55;;
54125;SDS011;40360;52.992;6.796;2023-10-19T10:59:17;14.38;;;12.65;;
54125;SDS011;40360;52.992;6.796;2023-10-19T11:01:43;15.00;;;13.40;;
54125;SDS011;40360;52.992;6.796;2023-10-19T11:04:09;16.48;;;13.05;;
54125;SDS011;40360;52.992;6.796;2023-10-19T11:06:48;14.77;;;12.55;;
54125;SDS011;40360;52.992;6.796;2023-10-19T11:09:14;13.65;;;12.15;;
54125;SDS011;40360;52.992;6.796;2023-10-19T11:11:43;15.82;;;11.35;;
54125;SDS011;40360;52.992;6.796;2023-10-19T11:14:13;16.17;;;12.45;;
54125;SDS011;40360;52.992;6.796;2023-10-19T11:16:38;17.08;;;12.18;;
54125;SDS011;40360;52.992;6.796;2023-10-19T11:19:05;13.32;;;11.90;;
54125;SDS011;40360;52.992;6.796;2023-10-19T11:21:30;14.85;;;11.95;;
54125;SDS011;40360;52.992;6.796;2023-10-19T11:23:56;14.57;;;11.15;;
54125;SDS011;40360;52.992;6.796;2023-10-19T11:26:23;13.05;;;11.13;;
54125;SDS011;40360;52.992;6.796;2023-10-19T11:31:29;12.85;;;10.73;;
54125;SDS011;40360;52.992;6.796;2023-10-19T11:34:02;12.68;;;11.40;;
54125;SDS011;40360;52.992;6.796;2023-10-19T11:36:28;14.27;;;10.90;;
54125;SDS011;40360;52.992;6.796;2023-10-19T11:38:54;12.13;;;10.85;;
54125;SDS011;40360;52.992;6.796;2023-10-19T11:41:20;12.18;;;10.30;;
54125;SDS011;40360;52.992;6.796;2023-10-19T11:43:48;12.40;;;10.38;;
54125;SDS011;40360;52.992;6.796;2023-10-19T11:46:15;15.45;;;11.27;;
54125;SDS011;40360;52.992;6.796;2023-10-19T11:48:43;15.70;;;11.50;;
54125;SDS011;40360;52.992;6.796;2023-10-19T11:51:09;14.50;;;12.40;;
54125;SDS011;40360;52.992;6.796;2023-10-19T11:53:39;14.45;;;12.38;;
54125;SDS011;40360;52.992;6.796;2023-10-19T11:56:05;16.17;;;11.90;;
54125;SDS011;40360;52.992;6.796;2023-10-19T11:58:35;14.95;;;11.85;;
54125;SDS011;40360;52.992;6.796;2023-10-19T12:01:03;15.05;;;11.98;;
54125;SDS011;40360;52.992;6.796;2023-10-19T12:03:33;13.30;;;10.68;;
54125;SDS011;40360;52.992;6.796;2023-10-19T12:06:02;14.90;;;12.02;;
54125;SDS011;40360;52.992;6.796;2023-10-19T12:08:31;11.45;;;10.23;;
54125;SDS011;40360;52.992;6.796;2023-10-19T12:10:58;11.18;;;10.02;;
54125;SDS011;40360;52.992;6.796;2023-10-19T12:13:24;14.35;;;10.70;;
54125;SDS011;40360;52.992;6.796;2023-10-19T12:15:50;12.43;;;10.25;;
54125;SDS011;40360;52.992;6.796;2023-10-19T12:18:20;11.55;;;10.38;;
54125;SDS011;40360;52.992;6.796;2023-10-19T12:20:46;13.27;;;10.45;;
54125;SDS011;40360;52.992;6.796;2023-10-19T12:23:13;13.85;;;11.32;;
54125;SDS011;40360;52.992;6.796;2023-10-19T12:25:39;13.27;;;11.82;;
54125;SDS011;40360;52.992;6.796;2023-10-19T12:28:07;17.45;;;11.85;;
54125;SDS011;40360;52.992;6.796;2023-10-19T12:30:33;12.50;;;11.18;;
54125;SDS011;40360;52.992;6.796;2023-10-19T12:33:04;17.35;;;11.98;;
54125;SDS011;40360;52.992;6.796;2023-10-19T12:35:36;18.13;;;12.27;;
54125;SDS011;40360;52.992;6.796;2023-10-19T12:38:17;16.05;;;12.52;;
54125;SDS011;40360;52.992;6.796;2023-10-19T12:40:45;14.55;;;12.93;;
54125;SDS011;40360;52.992;6.796;2023-10-19T12:43:16;16.10;;;13.05;;
54125;SDS011;40360;52.992;6.796;2023-10-19T12:45:47;16.27;;;12.82;;
54125;SDS011;40360;52.992;6.796;2023-10-19T12:48:19;15.55;;;13.27;;
54125;SDS011;40360;52.992;6.796;2023-10-19T12:50:55;15.75;;;13.68;;
54125;SDS011;40360;52.992;6.796;2023-10-19T12:53:20;14.95;;;13.45;;
54125;SDS011;40360;52.992;6.796;2023-10-19T12:55:49;14.82;;;13.32;;
54125;SDS011;40360;52.992;6.796;2023-10-19T12:58:15;14.07;;;12.68;;
54125;SDS011;40360;52.992;6.796;2023-10-19T13:00:44;16.70;;;11.73;;
54125;SDS011;40360;52.992;6.796;2023-10-19T13:03:13;14.45;;;11.32;;
54125;SDS011;40360;52.992;6.796;2023-10-19T13:05:39;22.88;;;10.98;;
54125;SDS011;40360;52.992;6.796;2023-10-19T13:08:10;19.45;;;10.65;;
54125;SDS011;40360;52.992;6.796;2023-10-19T13:10:39;12.25;;;10.32;;
54125;SDS011;40360;52.992;6.796;2023-10-19T13:13:07;16.10;;;9.95;;
54125;SDS011;40360;52.992;6.796;2023-10-19T13:15:36;15.82;;;10.15;;
54125;SDS011;40360;52.992;6.796;2023-10-19T13:18:03;11.27;;;9.85;;
54125;SDS011;40360;52.992;6.796;2023-10-19T13:20:31;12.90;;;10.63;;
54125;SDS011;40360;52.992;6.796;2023-10-19T13:23:08;11.95;;;10.65;;
54125;SDS011;40360;52.992;6.796;2023-10-19T13:25:40;13.80;;;10.23;;
54125;SDS011;40360;52.992;6.796;2023-10-19T13:28:11;12.60;;;10.52;;
54125;SDS011;40360;52.992;6.796;2023-10-19T13:30:38;14.15;;;11.07;;
54125;SDS011;40360;52.992;6.796;2023-10-19T13:33:09;14.07;;;11.68;;
54125;SDS011;40360;52.992;6.796;2023-10-19T13:35:38;17.42;;;10.77;;
54125;SDS011;40360;52.992;6.796;2023-10-19T13:38:08;16.50;;;11.20;;
54125;SDS011;40360;52.992;6.796;2023-10-19T13:40:35;20.27;;;11.05;;
54125;SDS011;40360;52.992;6.796;2023-10-19T13:43:01;11.93;;;10.30;;
54125;SDS011;40360;52.992;6.796;2023-10-19T13:45:30;11.90;;;10.23;;
54125;SDS011;40360;52.992;6.796;2023-10-19T13:47:58;11.38;;;10.05;;
54125;SDS011;40360;52.992;6.796;2023-10-19T13:50:24;11.50;;;10.07;;
54125;SDS011;40360;52.992;6.796;2023-10-19T13:52:52;14.40;;;10.38;;
54125;SDS011;40360;52.992;6.796;2023-10-19T13:55:22;12.63;;;9.88;;
54125;SDS011;40360;52.992;6.796;2023-10-19T13:57:48;12.40;;;9.40;;
54125;SDS011;40360;52.992;6.796;2023-10-19T14:00:15;13.82;;;10.13;;
54125;SDS011;40360;52.992;6.796;2023-10-19T14:02:51;14.98;;;10.80;;
54125;SDS011;40360;52.992;6.796;2023-10-19T14:05:17;16.33;;;9.77;;
54125;SDS011;40360;52.992;6.796;2023-10-19T14:07:44;13.23;;;10.75;;
54125;SDS011;40360;52.992;6.796;2023-10-19T14:10:12;13.18;;;11.25;;
54125;SDS011;40360;52.992;6.796;2023-10-19T14:12:42;16.98;;;11.63;;
54125;SDS011;40360;52.992;6.796;2023-10-19T14:15:18;15.77;;;11.93;;
54125;SDS011;40360;52.992;6.796;2023-10-19T14:17:45;19.15;;;12.60;;
54125;SDS011;40360;52.992;6.796;2023-10-19T14:20:12;19.20;;;12.98;;
54125;SDS011;40360;52.992;6.796;2023-10-19T14:22:39;16.33;;;13.45;;
54125;SDS011;40360;52.992;6.796;2023-10-19T14:25:13;16.52;;;13.43;;
54125;SDS011;40360;52.992;6.796;2023-10-19T14:30:08;23.48;;;16.17;;
54125;SDS011;40360;52.992;6.796;2023-10-19T14:32:41;20.33;;;15.98;;
54125;SDS011;40360;52.992;6.796;2023-10-19T14:35:15;25.73;;;17.33;;
54125;SDS011;40360;52.992;6.796;2023-10-19T14:37:43;21.08;;;15.60;;
54125;SDS011;40360;52.992;6.796;2023-10-19T14:40:11;23.70;;;15.90;;
54125;SDS011;40360;52.992;6.796;2023-10-19T14:42:39;24.98;;;16.27;;
54125;SDS011;40360;52.992;6.796;2023-10-19T14:45:09;19.92;;;15.95;;
54125;SDS011;40360;52.992;6.796;2023-10-19T14:47:48;24.65;;;15.65;;
54125;SDS011;40360;52.992;6.796;2023-10-19T14:50:19;22.77;;;15.85;;
54125;SDS011;40360;52.992;6.796;2023-10-19T14:52:46;18.10;;;14.30;;
54125;SDS011;40360;52.992;6.796;2023-10-19T14:55:13;22.33;;;15.27;;
54125;SDS011;40360;52.992;6.796;2023-10-19T14:57:41;24.63;;;15.50;;
54125;SDS011;40360;52.992;6.796;2023-10-19T15:00:08;18.60;;;14.35;;
54125;SDS011;40360;52.992;6.796;2023-10-19T15:02:45;20.08;;;15.35;;
54125;SDS011;40360;52.992;6.796;2023-10-19T15:05:11;18.10;;;13.95;;
54125;SDS011;40360;52.992;6.796;2023-10-19T15:07:44;25.05;;;15.40;;
54125;SDS011;40360;52.992;6.796;2023-10-19T15:10:22;23.80;;;15.13;;
54125;SDS011;40360;52.992;6.796;2023-10-19T15:12:50;23.48;;;16.70;;
54125;SDS011;40360;52.992;6.796;2023-10-19T15:15:15;24.60;;;16.08;;
54125;SDS011;40360;52.992;6.796;2023-10-19T15:17:41;24.77;;;16.73;;